Time;durP1;ratioP1;P1;durP2;ratioP2;P2;SDS_P1;SDS_P2;PMS_P1;PMS_P2;Temp;Humidity;BMP_temperature;BMP_pressure;BME280_temperature;BME280_humidity;BME280_pressure;Samples;Min_cycle;Max_cycle;Signal;HPM_P1;HPM_P2
2023/01/23 00:02:15;;;;;;;7.17;5.70;;;-3.00;99.90;;;;;;5055438;28;20476;-76
2023/01/23 00:04:42;;;;;;;8.43;5.67;;;-3.20;99.90;;;;;;5055314;28;20993;-75
2023/01/23 00:07:09;;;;;;;7.30;5.53;;;-3.10;99.90;;;;;;5056546;28;20513;-76
2023/01/23 00:09:37;;;;;;;7.03;4.97;;;-3.40;99.90;;;;;;5056267;28;20873;-75
2023/01/23 00:12:05;;;;;;;5.73;4.77;;;-3.50;99.90;;;;;;5057007;28;20573;-75
2023/01/23 00:14:32;;;;;;;9.93;6.27;;;-3.70;99.90;;;;;;5056586;28;20554;-76
2023/01/23 00:16:59;;;;;;;7.80;5.53;;;-3.90;99.90;;;;;;5056991;28;20542;-76
2023/01/23 00:19:26;;;;;;;9.47;5.73;;;-3.90;99.90;;;;;;5056011;28;20521;-76
2023/01/23 00:21:52;;;;;;;8.70;6.03;;;-3.90;99.90;;;;;;5055798;28;20951;-76
2023/01/23 00:24:19;;;;;;;8.10;6.20;;;-3.80;99.90;;;;;;5054540;28;20549;-75
2023/01/23 00:26:48;;;;;;;8.43;6.27;;;-3.70;99.90;;;;;;5055198;28;20534;-75
2023/01/23 00:29:15;;;;;;;7.30;5.87;;;-3.70;99.90;;;;;;5041116;28;20480;-75
2023/01/23 00:31:42;;;;;;;7.67;6.87;;;-3.60;99.90;;;;;;5035587;28;20483;-75
2023/01/23 00:34:12;;;;;;;7.80;7.00;;;-3.50;99.90;;;;;;5035393;28;20504;-75
2023/01/23 00:36:41;;;;;;;7.40;5.53;;;-3.30;99.90;;;;;;5036703;28;20483;-75
2023/01/23 00:39:18;;;;;;;8.23;6.27;;;-3.20;99.90;;;;;;5037175;28;20452;-75
2023/01/23 00:41:47;;;;;;;8.33;6.03;;;-3.10;99.90;;;;;;5037092;28;20472;-75
2023/01/23 00:44:15;;;;;;;7.10;5.53;;;-2.80;99.90;;;;;;5052737;28;21075;-75
2023/01/23 00:46:42;;;;;;;5.90;4.87;;;-2.80;99.90;;;;;;5057388;28;20448;-75
2023/01/23 00:49:09;;;;;;;7.47;5.93;;;-2.80;99.90;;;;;;5057529;28;20908;-75
2023/01/23 00:51:36;;;;;;;7.93;5.27;;;-2.70;99.90;;;;;;5057583;28;21069;-75
2023/01/23 00:54:03;;;;;;;7.27;5.53;;;-2.50;99.90;;;;;;5050398;28;21053;-75
2023/01/23 00:56:30;;;;;;;6.37;5.27;;;-2.50;99.90;;;;;;5053146;28;20453;-75
2023/01/23 00:58:58;;;;;;;5.87;4.83;;;-2.50;99.90;;;;;;5045250;28;20552;-76
2023/01/23 01:01:26;;;;;;;6.80;4.90;;;-2.50;99.90;;;;;;5047398;28;20518;-75
2023/01/23 01:03:53;;;;;;;8.23;5.87;;;-2.70;99.90;;;;;;5051338;28;20494;-75
2023/01/23 01:06:20;;;;;;;10.57;5.70;;;-2.80;99.90;;;;;;5051587;28;20546;-75
2023/01/23 01:08:48;;;;;;;7.33;5.53;;;-3.30;99.90;;;;;;5051153;28;20886;-75
2023/01/23 01:11:15;;;;;;;10.03;6.23;;;-3.40;99.90;;;;;;5050320;28;20556;-76
2023/01/23 01:13:42;;;;;;;7.43;5.70;;;-3.50;99.90;;;;;;5052167;28;20903;-75
2023/01/23 01:16:11;;;;;;;6.90;4.67;;;-3.50;99.90;;;;;;5052810;28;20479;-75
2023/01/23 01:18:38;;;;;;;8.30;6.83;;;-3.20;99.90;;;;;;5051532;28;20889;-75
2023/01/23 01:21:09;;;;;;;9.40;7.37;;;-3.20;99.90;;;;;;5051476;28;20531;-75
2023/01/23 01:23:37;;;;;;;7.57;4.73;;;-3.20;99.90;;;;;;5050830;28;20497;-75
2023/01/23 01:26:04;;;;;;;7.93;4.80;;;-3.10;99.90;;;;;;5051291;28;20586;-76
2023/01/23 01:28:33;;;;;;;10.40;7.57;;;-3.10;99.90;;;;;;5058928;28;20449;-75
2023/01/23 01:31:05;;;;;;;8.57;6.20;;;-3.00;99.90;;;;;;5051687;28;20516;-75
2023/01/23 01:33:34;;;;;;;10.07;6.67;;;-3.00;99.90;;;;;;5051857;28;20540;-75
2023/01/23 01:36:01;;;;;;;7.43;6.17;;;-2.90;99.90;;;;;;5051674;28;20452;-75
2023/01/23 01:38:28;;;;;;;6.93;6.20;;;-3.00;99.90;;;;;;5052087;28;20480;-75
2023/01/23 01:40:56;;;;;;;9.10;6.27;;;-3.10;99.90;;;;;;5052501;28;20472;-75
2023/01/23 01:43:24;;;;;;;10.00;6.40;;;-3.20;99.90;;;;;;5050828;28;20461;-75
2023/01/23 01:46:13;;;;;;;7.73;5.67;;;-3.10;99.90;;;;;;5050896;28;20530;-75
2023/01/23 01:48:46;;;;;;;7.57;6.23;;;-3.10;99.90;;;;;;5050957;28;20478;-75
2023/01/23 01:51:21;;;;;;;8.77;6.83;;;-3.00;99.90;;;;;;5051022;28;20509;-75
2023/01/23 01:53:53;;;;;;;8.90;6.00;;;-2.90;99.90;;;;;;5050748;28;20526;-75
2023/01/23 01:56:20;;;;;;;8.03;6.00;;;-2.90;99.90;;;;;;5050041;28;20496;-75
2023/01/23 01:58:50;;;;;;;10.13;5.97;;;-2.90;99.90;;;;;;5052214;28;20529;-75
2023/01/23 02:01:18;;;;;;;8.07;6.23;;;-3.20;99.90;;;;;;5051630;28;20530;-75
2023/01/23 02:03:47;;;;;;;9.77;6.97;;;-3.50;99.90;;;;;;5051924;28;20547;-75
2023/01/23 02:06:14;;;;;;;11.33;7.33;;;-3.80;99.90;;;;;;5051435;28;20465;-76
2023/01/23 02:08:48;;;;;;;10.97;7.50;;;-3.80;99.90;;;;;;5051822;28;20535;-75
2023/01/23 02:11:17;;;;;;;11.40;7.00;;;-3.80;99.90;;;;;;5051711;28;20760;-75
2023/01/23 02:13:44;;;;;;;8.50;7.60;;;-3.80;99.90;;;;;;5051593;28;20494;-75
2023/01/23 02:16:14;;;;;;;11.73;7.47;;;-3.80;99.90;;;;;;5051113;28;20450;-75
2023/01/23 02:18:46;;;;;;;10.60;7.20;;;-3.60;99.90;;;;;;5050854;28;20572;-75
2023/01/23 02:21:16;;;;;;;8.50;6.63;;;-3.40;99.90;;;;;;5050352;28;20464;-75
2023/01/23 02:23:56;;;;;;;13.03;9.07;;;-3.20;99.90;;;;;;5050131;28;20556;-75
2023/01/23 02:26:31;;;;;;;12.03;6.90;;;-3.00;99.90;;;;;;5049714;28;20469;-75
2023/01/23 02:28:58;;;;;;;10.10;7.33;;;-2.90;99.90;;;;;;5050650;28;20499;-76
2023/01/23 02:31:26;;;;;;;7.87;6.73;;;-3.20;99.90;;;;;;5050506;28;20554;-75
2023/01/23 02:33:54;;;;;;;11.10;6.73;;;-3.20;99.90;;;;;;5051275;28;20548;-75
2023/01/23 02:36:23;;;;;;;9.53;7.30;;;-3.30;99.90;;;;;;5050539;28;20476;-75
2023/01/23 02:38:59;;;;;;;9.60;6.50;;;-3.40;99.90;;;;;;5051062;28;20521;-75
2023/01/23 02:41:31;;;;;;;12.10;7.10;;;-3.40;99.90;;;;;;5050833;28;20521;-75
2023/01/23 02:44:02;;;;;;;9.13;7.83;;;-3.20;99.90;;;;;;5050296;28;20501;-76
2023/01/23 02:46:29;;;;;;;12.60;7.80;;;-3.20;99.90;;;;;;5039920;28;20546;-75
2023/01/23 02:48:56;;;;;;;9.60;6.33;;;-3.00;99.90;;;;;;5051185;28;20520;-75
2023/01/23 02:51:23;;;;;;;10.70;7.50;;;-3.00;99.90;;;;;;5050774;28;20441;-75
2023/01/23 02:53:50;;;;;;;8.03;6.90;;;-2.80;99.90;;;;;;5051001;28;20474;-75
2023/01/23 02:56:17;;;;;;;9.40;7.53;;;-2.80;99.90;;;;;;5050177;28;20541;-75
2023/01/23 03:01:32;;;;;;;8.67;6.40;;;-3.10;99.90;;;;;;5049429;28;20465;-75
2023/01/23 03:04:02;;;;;;;10.67;6.87;;;-3.20;99.90;;;;;;5049381;28;20470;-75
2023/01/23 03:06:35;;;;;;;10.93;7.37;;;-3.00;99.90;;;;;;5048911;28;20446;-75
2023/01/23 03:09:04;;;;;;;8.30;6.40;;;-3.30;99.90;;;;;;5049670;28;20449;-75
2023/01/23 03:11:32;;;;;;;11.70;8.40;;;-3.00;99.90;;;;;;5049057;28;20622;-75
2023/01/23 03:14:00;;;;;;;13.10;7.23;;;-2.90;99.90;;;;;;5051125;28;20528;-75
2023/01/23 03:16:27;;;;;;;7.97;7.13;;;-3.00;99.90;;;;;;5050434;28;20532;-75
2023/01/23 03:18:56;;;;;;;11.37;8.10;;;-3.00;99.90;;;;;;5050925;28;20507;-75
2023/01/23 03:21:23;;;;;;;8.30;7.10;;;-3.10;99.90;;;;;;5049229;28;20499;-75
2023/01/23 03:23:50;;;;;;;11.50;7.73;;;-2.90;99.90;;;;;;5050424;28;20497;-75
2023/01/23 03:26:17;;;;;;;10.13;7.50;;;-3.00;99.90;;;;;;5049661;28;20533;-76
2023/01/23 03:31:26;;;;;;;9.93;7.30;;;-3.70;99.90;;;;;;5027167;28;20536;-76
2023/01/23 03:33:53;;;;;;;11.03;8.50;;;-3.90;99.90;;;;;;5050525;28;20494;-75
2023/01/23 03:36:20;;;;;;;9.47;7.70;;;-3.90;99.90;;;;;;5050385;28;20489;-75
2023/01/23 03:41:28;;;;;;;7.33;6.57;;;-3.70;99.90;;;;;;5048955;28;20847;-75
2023/01/23 03:43:56;;;;;;;10.70;6.70;;;-3.70;99.90;;;;;;5069814;22;20486;-47
2023/01/23 03:46:22;;;;;;;9.23;7.50;;;-3.50;99.90;;;;;;5049018;28;20554;-46
2023/01/23 03:48:51;;;;;;;9.97;7.30;;;-3.50;99.90;;;;;;5049979;28;20523;-48
2023/01/23 03:51:18;;;;;;;9.27;7.30;;;-3.70;99.90;;;;;;5050441;28;20465;-47
2023/01/23 03:53:45;;;;;;;8.70;5.57;;;-3.80;99.90;;;;;;5059098;28;20563;-47
2023/01/23 03:56:12;;;;;;;7.03;6.00;;;-3.70;99.90;;;;;;5049030;28;20852;-47
2023/01/23 03:58:39;;;;;;;14.60;7.53;;;-3.70;99.90;;;;;;5128944;22;20483;-48
2023/01/23 04:01:06;;;;;;;8.77;7.23;;;-3.60;99.90;;;;;;5048235;28;20532;-47
2023/01/23 04:03:33;;;;;;;8.80;6.90;;;-3.30;99.90;;;;;;5047580;28;20835;-47
2023/01/23 04:06:02;;;;;;;10.20;7.43;;;-3.10;99.90;;;;;;5048198;28;20482;-47
2023/01/23 04:08:29;;;;;;;11.03;6.97;;;-3.10;99.90;;;;;;5047301;28;20549;-50
2023/01/23 04:11:02;;;;;;;9.90;7.27;;;-2.90;99.90;;;;;;5065406;28;20518;-48
2023/01/23 04:13:29;;;;;;;8.93;7.87;;;-2.70;99.90;;;;;;5049294;28;20486;-50
2023/01/23 04:15:56;;;;;;;9.83;7.63;;;-2.60;99.90;;;;;;5049510;28;20466;-47
2023/01/23 04:18:24;;;;;;;11.13;6.80;;;-2.80;99.90;;;;;;5049353;28;20552;-47
2023/01/23 04:20:51;;;;;;;8.73;6.00;;;-2.80;99.90;;;;;;5048374;28;20507;-47
2023/01/23 04:23:19;;;;;;;9.90;6.90;;;-2.80;99.90;;;;;;5047059;28;20462;-50
2023/01/23 04:25:46;;;;;;;8.43;6.73;;;-2.70;99.90;;;;;;5047666;28;20545;-49
2023/01/23 04:28:13;;;;;;;9.20;7.40;;;-2.60;99.90;;;;;;5047578;28;20492;-48
2023/01/23 04:30:40;;;;;;;11.73;7.37;;;-2.90;99.90;;;;;;5048543;28;20920;-47
2023/01/23 04:33:07;;;;;;;10.70;7.33;;;-3.20;99.90;;;;;;5050810;28;20931;-47
2023/01/23 04:35:34;;;;;;;9.07;7.30;;;-3.50;99.90;;;;;;5068430;28;20535;-50
2023/01/23 04:38:01;;;;;;;13.47;9.70;;;-3.80;99.90;;;;;;5054241;28;20611;-47
2023/01/23 04:40:29;;;;;;;16.50;9.50;;;-3.90;99.90;;;;;;5052811;28;20529;-47
2023/01/23 04:42:56;;;;;;;13.57;9.33;;;-4.00;99.90;;;;;;5053175;28;20516;-48
2023/01/23 04:45:23;;;;;;;9.67;7.63;;;-4.00;99.90;;;;;;5050260;28;20495;-49
2023/01/23 04:47:50;;;;;;;7.83;7.00;;;-3.90;99.90;;;;;;5051580;28;20556;-47
2023/01/23 04:50:17;;;;;;;9.43;8.07;;;-3.80;99.90;;;;;;5052417;28;20511;-47
2023/01/23 04:52:44;;;;;;;11.93;7.10;;;-3.80;99.90;;;;;;5060434;28;20499;-47
2023/01/23 04:55:11;;;;;;;10.50;7.40;;;-3.70;99.90;;;;;;5057343;28;20475;-47
2023/01/23 04:57:39;;;;;;;10.30;8.00;;;-3.50;99.90;;;;;;5052315;28;20480;-49
2023/01/23 05:00:09;;;;;;;11.73;8.07;;;-3.20;99.90;;;;;;5053194;28;20867;-47
2023/01/23 05:02:36;;;;;;;12.17;8.10;;;-3.00;99.90;;;;;;5063670;28;20520;-47
2023/01/23 05:05:03;;;;;;;12.47;8.50;;;-3.10;99.90;;;;;;5050764;28;20530;-47
2023/01/23 05:07:30;;;;;;;12.43;7.90;;;-3.90;99.90;;;;;;5053755;28;20567;-47
2023/01/23 05:09:56;;;;;;;16.57;9.40;;;-4.20;99.90;;;;;;5050703;28;20483;-51
2023/01/23 05:12:23;;;;;;;10.07;8.20;;;-4.20;99.90;;;;;;5050484;28;20521;-47
2023/01/23 05:14:52;;;;;;;10.50;7.90;;;-4.20;99.90;;;;;;5051704;28;20530;-47
2023/01/23 05:17:18;;;;;;;16.10;8.50;;;-4.00;99.90;;;;;;5062608;28;20832;-48
2023/01/23 05:19:45;;;;;;;17.47;11.27;;;-3.60;99.90;;;;;;5050714;28;20445;-47
2023/01/23 05:22:13;;;;;;;11.03;8.70;;;-3.70;99.90;;;;;;5053375;28;20498;-47
2023/01/23 05:24:39;;;;;;;10.90;8.43;;;-3.60;99.90;;;;;;5063790;28;20529;-49
2023/01/23 05:27:06;;;;;;;12.97;8.40;;;-3.80;99.90;;;;;;5056052;28;20551;-47
2023/01/23 05:29:33;;;;;;;14.83;8.27;;;-3.90;99.90;;;;;;5051578;28;20483;-47
2023/01/23 05:32:02;;;;;;;8.45;7.05;;;-3.90;99.90;;;;;;5063376;28;20880;-51
2023/01/23 05:34:29;;;;;;;12.73;8.03;;;-3.90;99.90;;;;;;5050455;28;20223;-47
2023/01/23 05:36:56;;;;;;;11.83;8.97;;;-4.20;99.90;;;;;;5060283;28;20473;-47
2023/01/23 05:39:23;;;;;;;13.03;8.43;;;-4.40;99.90;;;;;;5071718;28;20488;-47
2023/01/23 05:41:49;;;;;;;12.30;9.23;;;-4.40;99.90;;;;;;5057987;28;20477;-47
2023/01/23 05:44:16;;;;;;;11.60;8.07;;;-4.20;99.90;;;;;;5053903;28;20524;-47
2023/01/23 05:46:43;;;;;;;12.85;9.65;;;-4.20;99.90;;;;;;5066992;28;20527;-48
2023/01/23 05:49:11;;;;;;;13.07;8.13;;;-3.90;99.90;;;;;;5051394;28;20235;-47
2023/01/23 05:51:38;;;;;;;13.17;8.87;;;-3.70;99.90;;;;;;5060277;28;20480;-47
2023/01/23 05:54:05;;;;;;;11.70;8.10;;;-3.40;99.90;;;;;;5069279;28;20518;-49
2023/01/23 05:56:32;;;;;;;11.43;8.27;;;-3.90;99.90;;;;;;5069702;28;20542;-47
2023/01/23 05:58:59;;;;;;;14.33;9.40;;;-4.40;99.90;;;;;;5060984;28;21005;-49
2023/01/23 06:01:26;;;;;;;13.15;8.57;;;-4.50;99.90;;;;;;5057594;28;20474;-47
2023/01/23 06:03:53;;;;;;;11.18;8.05;;;-4.50;99.90;;;;;;5060736;28;20221;-47
2023/01/23 06:06:21;;;;;;;10.50;8.50;;;-4.30;99.90;;;;;;5060388;28;20277;-50
2023/01/23 06:08:48;;;;;;;11.57;8.50;;;-4.10;99.90;;;;;;5053120;28;20887;-50
2023/01/23 06:11:15;;;;;;;10.43;8.07;;;-4.10;99.90;;;;;;5067858;28;20526;-45
2023/01/23 06:13:42;;;;;;;10.93;9.37;;;-4.20;99.90;;;;;;5057068;28;20530;-50
2023/01/23 06:16:09;;;;;;;10.20;8.20;;;-4.10;99.90;;;;;;5062973;28;20566;-48
2023/01/23 06:18:36;;;;;;;10.93;8.60;;;-4.10;99.90;;;;;;5068605;28;20758;-47
2023/01/23 06:21:04;;;;;;;11.53;8.20;;;-3.90;99.90;;;;;;5061168;28;20559;-50
2023/01/23 06:23:32;;;;;;;9.83;7.30;;;-4.00;99.90;;;;;;5056781;28;20841;-47
2023/01/23 06:26:00;;;;;;;17.73;11.97;;;-4.10;99.90;;;;;;5057553;28;20481;-49
2023/01/23 06:28:27;;;;;;;15.87;11.73;;;-4.30;99.90;;;;;;5058139;28;20487;-50
2023/01/23 06:30:55;;;;;;;14.70;10.03;;;-4.10;99.90;;;;;;5066114;28;20512;-48
2023/01/23 06:33:22;;;;;;;12.23;9.90;;;-4.20;99.90;;;;;;5069592;28;21029;-47
2023/01/23 06:35:49;;;;;;;16.17;9.93;;;-4.30;99.90;;;;;;5070809;28;20473;-48
2023/01/23 06:38:16;;;;;;;11.77;8.00;;;-4.10;99.90;;;;;;5048885;28;20558;-45
2023/01/23 06:40:44;;;;;;;11.70;8.30;;;-4.20;99.90;;;;;;5050809;28;20528;-47
2023/01/23 06:43:11;;;;;;;10.00;8.23;;;-4.30;99.90;;;;;;5050082;28;20883;-47
2023/01/23 06:45:38;;;;;;;10.47;7.77;;;-4.30;99.90;;;;;;5050300;28;20506;-47
2023/01/23 06:48:05;;;;;;;11.10;7.47;;;-4.00;99.90;;;;;;5065212;28;20536;-47
2023/01/23 06:50:32;;;;;;;13.17;8.77;;;-4.10;99.90;;;;;;5070458;28;20472;-47
2023/01/23 06:52:59;;;;;;;14.50;9.90;;;-4.00;99.90;;;;;;5057825;28;20564;-48
2023/01/23 06:55:26;;;;;;;11.40;9.83;;;-3.90;99.90;;;;;;5047860;28;20477;-47
2023/01/23 06:57:54;;;;;;;11.40;8.73;;;-3.80;99.90;;;;;;5048599;28;20568;-49
2023/01/23 07:00:22;;;;;;;15.07;10.30;;;-3.90;99.90;;;;;;5048834;28;20473;-50
2023/01/23 07:02:49;;;;;;;13.50;11.77;;;-4.10;99.90;;;;;;5047921;28;20930;-47
2023/01/23 07:05:16;;;;;;;12.77;9.90;;;-4.10;99.90;;;;;;5048119;28;20889;-49
2023/01/23 07:07:43;;;;;;;9.97;7.70;;;-4.10;99.90;;;;;;5049613;28;20546;-47
2023/01/23 07:10:11;;;;;;;15.87;8.60;;;-4.00;99.90;;;;;;5050467;28;20955;-47
2023/01/23 07:12:37;;;;;;;11.07;7.90;;;-4.00;99.90;;;;;;5049791;28;20535;-47
2023/01/23 07:15:07;;;;;;;12.73;8.73;;;-4.10;99.90;;;;;;5049420;28;20537;-47
2023/01/23 07:17:34;;;;;;;12.53;8.97;;;-3.90;99.90;;;;;;5049677;28;20997;-48
2023/01/23 07:20:01;;;;;;;12.20;7.90;;;-3.90;99.90;;;;;;5050407;28;20528;-48
2023/01/23 07:22:28;;;;;;;11.67;9.40;;;-4.10;99.90;;;;;;5049523;28;20479;-49
2023/01/23 07:24:55;;;;;;;13.67;8.97;;;-4.20;99.90;;;;;;5048704;28;20542;-49
2023/01/23 07:27:22;;;;;;;11.27;9.77;;;-4.00;99.90;;;;;;5049704;28;20543;-47
2023/01/23 07:29:48;;;;;;;12.97;9.00;;;-4.10;99.90;;;;;;5050431;28;20545;-47
2023/01/23 07:32:17;;;;;;;15.17;9.40;;;-4.10;99.90;;;;;;5049434;28;20524;-47
2023/01/23 07:34:44;;;;;;;11.33;8.70;;;-3.90;99.90;;;;;;5049009;28;20888;-47
2023/01/23 07:37:11;;;;;;;12.23;9.13;;;-3.90;99.90;;;;;;5049611;28;20452;-47
2023/01/23 07:39:38;;;;;;;14.97;11.37;;;-4.30;99.90;;;;;;5048963;28;20547;-49
2023/01/23 07:42:05;;;;;;;20.07;12.60;;;-4.40;99.90;;;;;;5050052;28;20521;-47
2023/01/23 07:44:31;;;;;;;16.20;12.60;;;-4.30;99.90;;;;;;5047931;28;20535;-47
2023/01/23 07:46:58;;;;;;;15.67;11.33;;;-4.30;99.90;;;;;;5049728;28;20536;-48
2023/01/23 07:49:28;;;;;;;18.83;11.10;;;-4.00;99.90;;;;;;5049424;28;20448;-49
2023/01/23 07:51:55;;;;;;;16.30;12.80;;;-4.00;99.90;;;;;;5050193;28;20476;-47
2023/01/23 07:54:21;;;;;;;13.87;10.40;;;-4.10;99.90;;;;;;5048744;28;20602;-47
2023/01/23 07:56:50;;;;;;;14.27;10.30;;;-4.20;99.90;;;;;;5049592;28;20491;-47
2023/01/23 07:59:17;;;;;;;11.97;9.57;;;-4.40;99.90;;;;;;5049313;28;20460;-47
2023/01/23 08:01:44;;;;;;;12.90;10.43;;;-4.50;99.90;;;;;;5049747;28;20445;-47
2023/01/23 08:04:11;;;;;;;12.23;9.23;;;-4.30;99.90;;;;;;5048742;28;20476;-47
2023/01/23 08:06:39;;;;;;;15.00;10.90;;;-4.10;99.90;;;;;;5049156;28;20479;-47
2023/01/23 08:09:06;;;;;;;13.50;10.60;;;-3.90;99.90;;;;;;5054021;28;20510;-47
2023/01/23 08:11:33;;;;;;;13.20;10.57;;;-3.90;99.90;;;;;;5053400;28;20483;-47
2023/01/23 08:14:00;;;;;;;15.90;11.43;;;-3.90;99.90;;;;;;5052830;28;20562;-48
2023/01/23 08:16:27;;;;;;;15.30;10.43;;;-3.80;99.90;;;;;;5053127;28;20534;-47
2023/01/23 08:18:54;;;;;;;12.53;9.10;;;-3.70;99.90;;;;;;5053379;28;20568;-48
2023/01/23 08:21:21;;;;;;;15.00;11.40;;;-3.70;99.90;;;;;;5052967;28;20480;-47
2023/01/23 08:23:50;;;;;;;14.30;10.30;;;-4.30;99.90;;;;;;5052692;28;20478;-50
2023/01/23 08:26:17;;;;;;;15.77;10.23;;;-4.50;99.90;;;;;;5051963;28;20443;-47
2023/01/23 08:28:45;;;;;;;12.80;11.03;;;-4.10;99.90;;;;;;5053367;28;20545;-47
2023/01/23 08:31:13;;;;;;;14.73;10.70;;;-3.80;99.90;;;;;;5053438;28;20698;-47
2023/01/23 08:33:40;;;;;;;16.80;10.63;;;-3.70;99.90;;;;;;5052763;28;20564;-47
2023/01/23 08:36:08;;;;;;;17.33;10.60;;;-3.90;99.90;;;;;;5053125;28;20531;-47
2023/01/23 08:38:35;;;;;;;14.57;10.60;;;-4.00;99.90;;;;;;5051837;28;20502;-47
2023/01/23 08:41:04;;;;;;;21.20;11.03;;;-4.00;99.90;;;;;;5053007;28;20532;-47
2023/01/23 08:43:31;;;;;;;12.10;10.67;;;-4.00;99.90;;;;;;5051093;28;20457;-47
2023/01/23 08:45:59;;;;;;;12.60;9.50;;;-3.90;99.90;;;;;;5053111;28;20594;-47
2023/01/23 08:48:27;;;;;;;13.73;10.27;;;-3.80;99.90;;;;;;5052147;28;20471;-47
2023/01/23 08:51:00;;;;;;;10.70;9.20;;;-3.60;99.90;;;;;;5053001;28;20473;-50
2023/01/23 08:53:27;;;;;;;15.43;10.17;;;-3.40;99.90;;;;;;5051698;28;20473;-47
2023/01/23 08:55:58;;;;;;;13.70;9.37;;;-3.50;99.90;;;;;;5052582;28;20934;-47
2023/01/23 08:58:26;;;;;;;12.40;9.73;;;-3.80;99.90;;;;;;5052348;28;20562;-47
2023/01/23 09:00:53;;;;;;;14.83;10.07;;;-3.90;99.90;;;;;;5053032;28;20476;-47
2023/01/23 09:03:20;;;;;;;13.07;8.87;;;-3.80;99.90;;;;;;5051593;28;20526;-48
2023/01/23 09:05:47;;;;;;;12.30;10.13;;;-3.60;99.90;;;;;;5052885;28;21008;-47
2023/01/23 09:08:14;;;;;;;13.70;10.30;;;-3.50;99.90;;;;;;5051756;28;20522;-45
2023/01/23 09:10:41;;;;;;;15.47;9.87;;;-3.20;99.90;;;;;;5052588;28;20526;-50
2023/01/23 09:13:08;;;;;;;10.97;9.57;;;-3.20;99.90;;;;;;5052109;28;20451;-48
2023/01/23 09:15:38;;;;;;;14.87;9.77;;;-3.20;99.90;;;;;;5051690;28;20529;-45
2023/01/23 09:18:05;;;;;;;15.97;10.63;;;-3.10;99.90;;;;;;5052200;28;20552;-47
2023/01/23 09:20:32;;;;;;;11.40;9.57;;;-3.00;99.90;;;;;;5051306;28;21169;-47
2023/01/23 09:22:59;;;;;;;14.77;10.37;;;-3.00;99.90;;;;;;5051627;28;20531;-47
2023/01/23 09:25:26;;;;;;;15.20;10.93;;;-3.10;99.90;;;;;;5050983;28;20483;-47
2023/01/23 09:27:52;;;;;;;15.37;11.47;;;-3.10;99.90;;;;;;5052276;28;20491;-47
2023/01/23 09:30:19;;;;;;;28.50;17.53;;;-3.00;99.90;;;;;;5051568;28;20537;-47
2023/01/23 09:32:48;;;;;;;26.43;18.07;;;-3.00;99.90;;;;;;5052190;28;20560;-47
2023/01/23 09:35:15;;;;;;;22.37;14.07;;;-3.40;99.90;;;;;;5050937;28;20512;-44
2023/01/23 09:38:00;;;;;;;15.13;9.10;;;-3.60;99.90;;;;;;5051032;28;21037;-47
2023/01/23 09:40:30;;;;;;;13.80;10.10;;;-3.50;99.90;;;;;;5051736;28;20475;-47
2023/01/23 09:43:00;;;;;;;10.67;8.83;;;-3.30;99.90;;;;;;5051745;28;20477;-45
2023/01/23 09:45:27;;;;;;;13.10;8.67;;;-3.30;99.90;;;;;;5050129;28;20925;-48
2023/01/23 09:48:02;;;;;;;11.43;9.83;;;-3.40;99.90;;;;;;5051914;28;20501;-47
2023/01/23 09:50:33;;;;;;;11.70;8.60;;;-3.50;99.90;;;;;;5051386;28;20535;-47
2023/01/23 09:53:05;;;;;;;10.63;8.50;;;-3.40;99.90;;;;;;5051095;28;20613;-46
2023/01/23 09:55:40;;;;;;;11.20;9.10;;;-3.30;99.90;;;;;;5051142;28;21077;-47
2023/01/23 09:58:16;;;;;;;15.77;11.80;;;-3.10;99.90;;;;;;5051960;28;20440;-47
2023/01/23 10:00:43;;;;;;;15.37;9.47;;;-2.90;99.90;;;;;;5052159;28;20532;-47
2023/01/23 10:03:14;;;;;;;14.17;10.23;;;-2.70;99.90;;;;;;5050639;28;20448;-49
2023/01/23 10:05:47;;;;;;;11.70;8.43;;;-3.10;99.90;;;;;;5051422;28;20489;-48
2023/01/23 10:08:26;;;;;;;14.13;8.80;;;-3.50;99.90;;;;;;5051025;28;20551;-45
2023/01/23 10:10:59;;;;;;;12.10;8.30;;;-3.50;99.90;;;;;;5051798;28;20526;-45
2023/01/23 10:13:44;;;;;;;14.90;10.63;;;-3.30;99.90;;;;;;5050241;28;20533;-48
2023/01/23 10:16:31;;;;;;;13.20;9.77;;;-3.00;99.90;;;;;;5051063;28;20455;-47
2023/01/23 10:19:10;;;;;;;13.40;9.13;;;-2.90;99.90;;;;;;5051279;28;20552;-48
2023/01/23 10:21:43;;;;;;;14.80;11.27;;;-3.00;99.90;;;;;;5050962;28;20521;-49
2023/01/23 10:24:24;;;;;;;11.27;8.63;;;-3.10;99.90;;;;;;5050149;28;20469;-50
2023/01/23 10:26:52;;;;;;;15.17;9.80;;;-2.80;99.90;;;;;;5051323;28;20473;-47
2023/01/23 10:29:27;;;;;;;14.07;10.60;;;-2.80;99.90;;;;;;5050464;28;21028;-47
2023/01/23 10:31:56;;;;;;;17.53;12.00;;;-2.80;99.90;;;;;;5050896;28;20892;-47
2023/01/23 10:34:34;;;;;;;16.20;10.40;;;-2.70;99.90;;;;;;5049581;28;20495;-48
2023/01/23 10:37:11;;;;;;;14.27;10.03;;;-2.60;99.90;;;;;;5050935;28;20449;-48
2023/01/23 10:39:47;;;;;;;15.87;9.97;;;-2.50;99.90;;;;;;5050067;28;20480;-47
2023/01/23 10:42:17;;;;;;;15.93;10.90;;;-2.40;99.90;;;;;;5050761;28;20477;-47
2023/01/23 10:44:44;;;;;;;14.80;11.73;;;-2.60;99.90;;;;;;5048374;28;20476;-48
2023/01/23 10:47:19;;;;;;;17.40;11.20;;;-2.70;99.90;;;;;;5050508;28;20640;-51
2023/01/23 10:49:47;;;;;;;14.63;9.90;;;-2.90;99.90;;;;;;5050774;28;20468;-47
2023/01/23 10:52:36;;;;;;;13.33;8.60;;;-3.00;99.90;;;;;;5050092;28;20535;-45
2023/01/23 10:55:05;;;;;;;12.90;9.50;;;-3.20;99.90;;;;;;5049877;28;20568;-48
2023/01/23 10:57:44;;;;;;;12.87;9.90;;;-3.10;99.90;;;;;;5049829;28;20480;-50
2023/01/23 11:00:22;;;;;;;13.33;10.20;;;-3.00;99.90;;;;;;5050297;28;20445;-49
2023/01/23 11:02:49;;;;;;;12.53;9.73;;;-2.80;99.90;;;;;;5050317;28;20857;-48
2023/01/23 11:05:38;;;;;;;14.87;9.37;;;-2.70;99.90;;;;;;5049913;28;20527;-45
2023/01/23 11:08:23;;;;;;;11.47;9.37;;;-2.50;99.90;;;;;;5050332;28;20483;-48
2023/01/23 11:10:50;;;;;;;14.00;9.33;;;-2.30;99.90;;;;;;5049046;28;20543;-48
2023/01/23 11:13:26;;;;;;;14.80;9.23;;;-2.20;99.90;;;;;;5048116;28;20484;-48
2023/01/23 11:15:54;;;;;;;13.20;8.60;;;-2.10;99.90;;;;;;5049235;28;20473;-47
2023/01/23 11:18:31;;;;;;;13.73;8.70;;;-2.20;99.90;;;;;;5049660;28;20925;-48
2023/01/23 11:20:59;;;;;;;11.70;8.70;;;-2.60;99.90;;;;;;5048727;28;20579;-48
2023/01/23 11:23:26;;;;;;;13.87;9.87;;;-2.70;99.90;;;;;;5048613;28;20545;-46
2023/01/23 11:25:55;;;;;;;11.93;8.83;;;-2.70;99.90;;;;;;5048533;28;20494;-50
2023/01/23 11:28:25;;;;;;;12.90;9.73;;;-2.70;99.90;;;;;;5049380;28;20553;-47
2023/01/23 11:30:56;;;;;;;11.47;9.30;;;-2.30;99.90;;;;;;5049777;28;20923;-47
2023/01/23 11:33:37;;;;;;;14.40;9.87;;;-2.10;99.90;;;;;;5053472;28;20900;-47
2023/01/23 11:36:14;;;;;;;13.17;10.27;;;-2.00;99.90;;;;;;5056426;28;20474;-48
2023/01/23 11:38:47;;;;;;;11.83;10.37;;;-2.10;99.90;;;;;;5055036;28;20460;-48
2023/01/23 11:41:14;;;;;;;14.67;11.17;;;-2.30;99.90;;;;;;5056762;28;20520;-46
2023/01/23 11:43:42;;;;;;;13.17;9.90;;;-2.50;99.90;;;;;;5058105;28;20518;-48
2023/01/23 11:46:32;;;;;;;12.80;10.60;;;-2.50;99.90;;;;;;5057737;28;20525;-49
2023/01/23 11:49:16;;;;;;;12.40;9.23;;;-2.50;99.90;;;;;;5051153;28;20544;-49
2023/01/23 11:51:56;;;;;;;14.50;10.90;;;-2.50;99.90;;;;;;5055446;28;20516;-49
2023/01/23 11:54:46;;;;;;;11.10;9.00;;;-2.00;99.90;;;;;;5068359;28;21080;-48
2023/01/23 11:57:22;;;;;;;17.53;11.00;;;-2.00;99.90;;;;;;5063250;28;20551;-48
2023/01/23 12:00:05;;;;;;;13.03;8.50;;;-2.20;99.90;;;;;;5069739;28;20515;-48
2023/01/23 12:03:25;;;;;;;13.93;8.40;;;-2.30;99.90;;;;;;5069205;28;20549;-48
2023/01/23 12:06:02;;;;;;;10.60;7.80;;;-2.30;99.90;;;;;;5069305;28;20512;-49
2023/01/23 12:08:41;;;;;;;10.47;7.90;;;-2.40;99.90;;;;;;5069140;28;20532;-47
2023/01/23 12:11:15;;;;;;;9.90;8.00;;;-2.20;99.90;;;;;;5064354;28;20523;-48
2023/01/23 12:13:59;;;;;;;9.90;8.00;;;-2.30;99.90;;;;;;5066390;28;20440;-49
2023/01/23 12:16:37;;;;;;;11.97;9.30;;;-2.10;99.90;;;;;;5067307;28;20918;-51
2023/01/23 12:19:21;;;;;;;9.93;7.47;;;-2.00;99.90;;;;;;5068260;28;20892;-47
2023/01/23 12:21:55;;;;;;;12.27;7.87;;;-1.90;99.90;;;;;;5065819;28;20523;-48
2023/01/23 12:24:39;;;;;;;12.83;8.93;;;-2.10;99.90;;;;;;5066164;28;20868;-47
2023/01/23 12:27:17;;;;;;;15.13;9.23;;;-2.20;99.90;;;;;;5068036;28;20551;-47
2023/01/23 12:30:16;;;;;;;15.13;8.67;;;-2.00;99.90;;;;;;5066188;28;20533;-48
2023/01/23 12:32:56;;;;;;;13.37;9.80;;;-1.80;99.90;;;;;;5060511;28;20539;-47
2023/01/23 12:35:47;;;;;;;15.70;10.33;;;-1.60;99.90;;;;;;5068694;28;20476;-47
2023/01/23 12:38:28;;;;;;;13.50;8.80;;;-1.60;99.90;;;;;;5061702;28;20556;-46
2023/01/23 12:41:12;;;;;;;15.30;9.57;;;-1.70;99.90;;;;;;5057090;28;20539;-48
2023/01/23 12:43:45;;;;;;;10.60;8.17;;;-1.60;99.90;;;;;;5047927;28;20458;-48
2023/01/23 12:46:18;;;;;;;12.77;8.37;;;-1.60;99.90;;;;;;5048787;28;20521;-50
2023/01/23 12:48:49;;;;;;;12.23;8.60;;;-1.50;99.90;;;;;;5048986;28;20899;-48
2023/01/23 12:51:20;;;;;;;11.63;9.10;;;-1.50;99.90;;;;;;5047682;28;20842;-47
2023/01/23 12:53:52;;;;;;;11.80;8.70;;;-1.40;99.90;;;;;;5048851;28;20485;-48
2023/01/23 12:56:25;;;;;;;12.50;9.60;;;-1.50;99.90;;;;;;5051463;28;20505;-50
2023/01/23 12:59:01;;;;;;;9.63;7.73;;;-1.70;99.90;;;;;;5065220;28;20472;-47
2023/01/23 13:01:46;;;;;;;11.57;10.40;;;-1.80;99.90;;;;;;5072610;28;20479;-49